Time;durP1;ratioP1;P1;durP2;ratioP2;P2;SDS_P1;SDS_P2;PMS_P1;PMS_P2;Temp;Humidity;BMP_temperature;BMP_pressure;BME280_temperature;BME280_humidity;BME280_pressure;Samples;Min_cycle;Max_cycle;Signal;HPM_P1;HPM_P2
2022/08/12 00:43:16;;;;;;;3.78;3.25;;;;;;;;;;5071536;28;20051;-82
2022/08/12 00:48:30;;;;;;;5.03;3.90;;;;;;;;;;5071760;28;20407;-83
2022/08/12 00:50:57;;;;;;;5.63;3.88;;;;;;;;;;5049057;28;20107;-82
2022/08/12 00:53:23;;;;;;;6.30;3.80;;;;;;;;;;5087442;28;20036;-82
2022/08/12 00:55:51;;;;;;;5.40;3.90;;;;;;;;;;5070731;28;20035;-83
2022/08/12 00:58:21;;;;;;;3.83;3.42;;;;;;;;;;5053620;28;20024;-83
2022/08/12 01:00:48;;;;;;;4.65;3.55;;;;;;;;;;5053162;28;20094;-82
2022/08/12 01:03:17;;;;;;;3.90;3.55;;;;;;;;;;5053160;28;20025;-80
2022/08/12 01:11:31;;;;;;;10.98;4.05;;;;;;;;;;5071794;28;20035;-79
2022/08/12 01:13:58;;;;;;;5.20;3.83;;;;;;;;;;5087457;28;20032;-81
2022/08/12 01:16:26;;;;;;;3.90;3.60;;;;;;;;;;5070926;28;20203;-80
2022/08/12 01:18:54;;;;;;;4.90;3.90;;;;;;;;;;5053295;28;20060;-82
2022/08/12 01:21:26;;;;;;;4.35;3.67;;;;;;;;;;5053351;28;20115;-82
2022/08/12 01:24:12;;;;;;;3.75;3.45;;;;;;;;;;5053604;28;20016;-80
2022/08/12 01:26:40;;;;;;;4.07;3.55;;;;;;;;;;5054258;28;20051;-79
2022/08/12 01:29:06;;;;;;;4.72;3.47;;;;;;;;;;5054427;28;20115;-80
2022/08/12 01:31:35;;;;;;;5.15;3.40;;;;;;;;;;5037164;28;20029;-80
2022/08/12 01:34:08;;;;;;;3.58;3.28;;;;;;;;;;5066959;28;20043;-80
2022/08/12 01:36:46;;;;;;;4.07;3.60;;;;;;;;;;5070304;28;20386;-79
2022/08/12 01:39:16;;;;;;;6.53;3.80;;;;;;;;;;5071118;28;20070;-79
2022/08/12 01:41:47;;;;;;;3.90;3.60;;;;;;;;;;5053783;28;20474;-79
2022/08/12 01:44:14;;;;;;;4.60;3.78;;;;;;;;;;5073074;28;20052;-80
2022/08/12 01:46:50;;;;;;;4.07;3.67;;;;;;;;;;5053754;28;20028;-80
2022/08/12 01:49:17;;;;;;;4.25;3.60;;;;;;;;;;5054259;28;20075;-80
2022/08/12 01:51:45;;;;;;;4.78;3.90;;;;;;;;;;5060107;28;20017;-80
2022/08/12 01:54:18;;;;;;;4.30;3.90;;;;;;;;;;5053855;28;20427;-80
2022/08/12 01:57:02;;;;;;;4.10;3.70;;;;;;;;;;5089584;28;20017;-80
2022/08/12 01:59:55;;;;;;;4.38;3.83;;;;;;;;;;5045076;28;20070;-82
2022/08/12 02:02:32;;;;;;;4.10;3.72;;;;;;;;;;5075512;28;20075;-81
2022/08/12 02:11:18;;;;;;;4.30;3.67;;;;;;;;;;5075526;28;20058;-80
2022/08/12 02:13:44;;;;;;;4.05;3.65;;;;;;;;;;5046735;28;20078;-80
2022/08/12 02:16:21;;;;;;;4.30;3.90;;;;;;;;;;5074144;28;20048;-80
2022/08/12 02:18:55;;;;;;;4.10;3.70;;;;;;;;;;5074853;28;20017;-79
2022/08/12 02:21:31;;;;;;;5.13;3.72;;;;;;;;;;5090183;28;20028;-82
2022/08/12 02:23:58;;;;;;;4.85;3.90;;;;;;;;;;5075137;28;20021;-79
2022/08/12 02:26:25;;;;;;;4.30;3.85;;;;;;;;;;5075274;28;20064;-80
2022/08/12 02:28:52;;;;;;;4.40;4.00;;;;;;;;;;5090927;28;20029;-80
2022/08/12 02:31:19;;;;;;;4.07;3.65;;;;;;;;;;5073522;28;20024;-80
2022/08/12 02:33:46;;;;;;;4.43;3.97;;;;;;;;;;5073520;28;20465;-80
2022/08/12 02:36:14;;;;;;;6.47;3.90;;;;;;;;;;5063248;28;20070;-82
2022/08/12 02:38:40;;;;;;;;;;;;;;;;;;5056990;28;20032;-80
2022/08/12 02:41:08;;;;;;;3.90;3.60;;;;;;;;;;5056044;28;19967;-79
2022/08/12 02:43:45;;;;;;;6.22;3.80;;;;;;;;;;5056719;28;20025;-81
2022/08/12 02:46:12;;;;;;;4.30;3.80;;;;;;;;;;5056909;28;20035;-80
2022/08/12 02:48:44;;;;;;;4.88;3.75;;;;;;;;;;5056172;28;20232;-81
2022/08/12 02:51:12;;;;;;;3.78;3.47;;;;;;;;;;5048726;28;20031;-80
2022/08/12 02:53:38;;;;;;;6.07;3.83;;;;;;;;;;5054440;28;20394;-79
2022/08/12 02:56:05;;;;;;;4.88;4.38;;;;;;;;;;5077956;28;20059;-82
2022/08/12 02:58:33;;;;;;;5.00;4.20;;;;;;;;;;5074460;28;20036;-82
2022/08/12 03:01:00;;;;;;;4.55;4.03;;;;;;;;;;5087864;28;20462;-81
2022/08/12 03:03:30;;;;;;;5.90;3.95;;;;;;;;;;5074219;28;20028;-80
2022/08/12 03:06:00;;;;;;;4.22;3.88;;;;;;;;;;5074269;28;20360;-81
2022/08/12 03:08:29;;;;;;;3.83;3.38;;;;;;;;;;5056275;28;20336;-82
2022/08/12 03:10:58;;;;;;;5.03;3.95;;;;;;;;;;5050893;28;20032;-80
2022/08/12 03:13:25;;;;;;;4.00;3.53;;;;;;;;;;5048270;28;20024;-80
2022/08/12 03:15:54;;;;;;;6.30;3.80;;;;;;;;;;5056342;28;20177;-80
2022/08/12 03:18:29;;;;;;;5.00;4.07;;;;;;;;;;5073976;28;20042;-80
2022/08/12 03:20:55;;;;;;;6.20;4.15;;;;;;;;;;5056216;28;20029;-80
2022/08/12 03:23:22;;;;;;;6.07;4.07;;;;;;;;;;5066388;28;20020;-80
2022/08/12 03:25:50;;;;;;;4.65;4.00;;;;;;;;;;5073695;28;20045;-80
2022/08/12 03:28:49;;;;;;;4.40;3.92;;;;;;;;;;5055884;28;20020;-80
2022/08/12 03:31:06;;;;;;;4.22;3.83;;;;;;;;;;5071648;28;20463;-80
2022/08/12 03:33:35;;;;;;;4.35;3.95;;;;;;;;;;5073608;28;20486;-80
2022/08/12 03:36:02;;;;;;;5.13;3.88;;;;;;;;;;5054645;28;20028;-80
2022/08/12 03:38:29;;;;;;;4.07;3.70;;;;;;;;;;5089485;28;20029;-80
2022/08/12 04:00:23;;;;;;;8.68;4.68;;;;;;;;;;5072502;28;20443;-80
2022/08/12 04:03:03;;;;;;;6.25;3.78;;;;;;;;;;5088879;28;20112;-80
2022/08/12 04:05:30;;;;;;;4.50;4.00;;;;;;;;;;5073559;28;20028;-81
2022/08/12 04:07:58;;;;;;;4.68;4.28;;;;;;;;;;5088530;28;20107;-81
2022/08/12 04:13:14;;;;;;;4.50;4.10;;;;;;;;;;5087121;28;20347;-82
2022/08/12 04:13:18;;;;;;;5.78;4.18;;;;;;;;;;5053014;28;20040;-81
2022/08/12 04:15:44;;;;;;;5.28;4.18;;;;;;;;;;5043491;28;20032;-80
2022/08/12 04:18:17;;;;;;;5.13;4.05;;;;;;;;;;5072587;28;20033;-81
2022/08/12 04:20:43;;;;;;;4.93;3.80;;;;;;;;;;5087598;28;20029;-79
2022/08/12 04:23:11;;;;;;;5.32;4.25;;;;;;;;;;5088221;28;20112;-81
2022/08/12 04:25:38;;;;;;;5.22;3.85;;;;;;;;;;5072029;28;20055;-81
2022/08/12 04:28:06;;;;;;;6.50;4.82;;;;;;;;;;5085981;28;20072;-82
2022/08/12 04:30:32;;;;;;;5.68;4.57;;;;;;;;;;5082576;28;20017;-82
2022/08/12 04:32:58;;;;;;;7.22;4.20;;;;;;;;;;5054643;28;20072;-82
2022/08/12 04:35:24;;;;;;;4.60;4.15;;;;;;;;;;5054457;28;20056;-81
2022/08/12 04:37:54;;;;;;;4.38;3.90;;;;;;;;;;5054446;28;20024;-81
2022/08/12 04:40:24;;;;;;;4.78;4.25;;;;;;;;;;5072260;28;20395;-81
2022/08/12 04:42:50;;;;;;;5.82;4.65;;;;;;;;;;5072360;28;20024;-83
2022/08/12 04:45:17;;;;;;;4.93;3.85;;;;;;;;;;5054784;28;20074;-82
2022/08/12 04:47:43;;;;;;;6.53;3.92;;;;;;;;;;5060774;28;20043;-82
2022/08/12 04:50:09;;;;;;;6.05;3.97;;;;;;;;;;5054184;28;20040;-82
2022/08/12 04:52:35;;;;;;;4.57;4.00;;;;;;;;;;5053947;28;20379;-82
2022/08/12 04:55:02;;;;;;;5.15;4.20;;;;;;;;;;5054044;28;20029;-82
2022/08/12 04:57:28;;;;;;;4.45;4.05;;;;;;;;;;5049222;28;20506;-82
2022/08/12 04:59:54;;;;;;;4.80;4.30;;;;;;;;;;5050140;28;20039;-82
2022/08/12 05:02:20;;;;;;;4.72;4.15;;;;;;;;;;5069887;28;20486;-83
2022/08/12 05:04:46;;;;;;;4.95;3.85;;;;;;;;;;5071843;28;20058;-82
2022/08/12 05:07:13;;;;;;;5.32;4.07;;;;;;;;;;5071589;28;20051;-82
2022/08/12 05:09:39;;;;;;;4.85;4.32;;;;;;;;;;5084112;28;20029;-82
2022/08/12 05:12:06;;;;;;;5.18;4.18;;;;;;;;;;5086684;28;20024;-82
2022/08/12 05:14:32;;;;;;;5.00;4.50;;;;;;;;;;5086305;28;20083;-82
2022/08/12 05:16:59;;;;;;;5.32;4.15;;;;;;;;;;5053619;28;20667;-83
2022/08/12 05:19:25;;;;;;;5.68;4.13;;;;;;;;;;5086353;28;20099;-83
2022/08/12 05:21:51;;;;;;;6.25;4.07;;;;;;;;;;5069835;28;20048;-83
2022/08/12 05:24:17;;;;;;;4.82;4.18;;;;;;;;;;5069776;28;20067;-84
2022/08/12 05:26:43;;;;;;;5.30;4.20;;;;;;;;;;5086119;28;20435;-82
2022/08/12 05:29:13;;;;;;;4.55;4.15;;;;;;;;;;5053917;28;20393;-83
2022/08/12 05:31:41;;;;;;;6.07;4.63;;;;;;;;;;5084730;28;20375;-80
2022/08/12 05:34:08;;;;;;;6.18;5.07;;;;;;;;;;5090874;28;20032;-81
2022/08/12 05:36:34;;;;;;;4.70;4.07;;;;;;;;;;5086883;28;20466;-81
2022/08/12 05:39:00;;;;;;;5.60;4.55;;;;;;;;;;5074601;28;20020;-80
2022/08/12 05:41:28;;;;;;;5.05;4.32;;;;;;;;;;5074921;28;20108;-79
2022/08/12 05:43:55;;;;;;;5.50;4.32;;;;;;;;;;5052241;28;20029;-78
2022/08/12 05:46:21;;;;;;;5.30;4.75;;;;;;;;;;5065499;28;20094;-79
2022/08/12 05:48:48;;;;;;;5.70;4.28;;;;;;;;;;5075573;28;20032;-80
2022/08/12 05:51:15;;;;;;;4.78;4.22;;;;;;;;;;5089386;28;20021;-79
2022/08/12 05:53:41;;;;;;;5.25;4.00;;;;;;;;;;5072849;28;20479;-81
2022/08/12 05:56:18;;;;;;;6.07;4.40;;;;;;;;;;5075132;28;20119;-79
2022/08/12 05:58:44;;;;;;;4.68;4.10;;;;;;;;;;5075285;28;20059;-80
2022/08/12 06:01:10;;;;;;;5.28;4.22;;;;;;;;;;5057918;28;20056;-81
2022/08/12 06:03:36;;;;;;;5.57;4.75;;;;;;;;;;5091280;28;20082;-82
2022/08/12 06:06:03;;;;;;;6.25;4.93;;;;;;;;;;5081311;28;20043;-80
2022/08/12 06:08:29;;;;;;;5.00;4.32;;;;;;;;;;5054487;28;20036;-79
2022/08/12 06:10:56;;;;;;;4.93;4.07;;;;;;;;;;5074966;28;20206;-79
2022/08/12 06:13:22;;;;;;;4.80;4.10;;;;;;;;;;5056911;28;20479;-80
2022/08/12 06:15:48;;;;;;;4.95;4.15;;;;;;;;;;5071419;28;20025;-79
2022/08/12 06:18:14;;;;;;;4.68;4.22;;;;;;;;;;5057038;28;20074;-80
2022/08/12 06:20:40;;;;;;;5.18;4.13;;;;;;;;;;5074615;28;20017;-80
2022/08/12 06:23:06;;;;;;;5.47;3.90;;;;;;;;;;5045354;28;20032;-80
2022/08/12 06:25:33;;;;;;;5.97;4.00;;;;;;;;;;5069284;28;20450;-80
2022/08/12 06:28:02;;;;;;;4.60;3.95;;;;;;;;;;5068047;28;20028;-80
2022/08/12 06:30:29;;;;;;;5.50;3.55;;;;;;;;;;5068404;28;20059;-80
2022/08/12 06:32:55;;;;;;;4.47;3.28;;;;;;;;;;5068397;28;20025;-79
2022/08/12 06:35:21;;;;;;;5.35;2.95;;;;;;;;;;5053821;28;20544;-80
2022/08/12 06:37:48;;;;;;;3.97;3.10;;;;;;;;;;5085643;28;20409;-81
2022/08/12 06:40:15;;;;;;;5.25;3.20;;;;;;;;;;5086304;28;20064;-80
2022/08/12 06:42:47;;;;;;;4.38;2.90;;;;;;;;;;5071803;28;20471;-80
2022/08/12 06:45:20;;;;;;;6.15;2.72;;;;;;;;;;5088146;28;20081;-81
2022/08/12 06:47:49;;;;;;;3.05;2.60;;;;;;;;;;5073235;28;20021;-81
2022/08/12 06:50:15;;;;;;;5.20;3.00;;;;;;;;;;5073335;28;20051;-82
2022/08/12 06:52:45;;;;;;;6.07;2.90;;;;;;;;;;5088920;28;20032;-81
2022/08/12 06:55:14;;;;;;;5.05;3.20;;;;;;;;;;5071858;28;20035;-80
2022/08/12 06:58:01;;;;;;;3.92;2.70;;;;;;;;;;5052645;28;20025;-82
2022/08/12 07:00:29;;;;;;;4.22;2.95;;;;;;;;;;5054011;28;20028;-81
2022/08/12 07:02:56;;;;;;;5.15;2.95;;;;;;;;;;5071879;28;20383;-82
2022/08/12 07:05:26;;;;;;;3.58;3.28;;;;;;;;;;5071761;28;20021;-79
2022/08/12 07:07:55;;;;;;;3.10;2.65;;;;;;;;;;5053798;28;20371;-81
2022/08/12 07:10:22;;;;;;;3.28;2.80;;;;;;;;;;5087372;28;20025;-82
2022/08/12 07:12:53;;;;;;;4.45;2.83;;;;;;;;;;5083691;28;20033;-81
2022/08/12 07:15:23;;;;;;;4.10;2.88;;;;;;;;;;5053402;28;20474;-78
2022/08/12 07:17:49;;;;;;;3.00;2.70;;;;;;;;;;5077561;28;20441;-80
2022/08/12 07:20:15;;;;;;;4.10;2.60;;;;;;;;;;5053300;28;20021;-82
2022/08/12 07:22:41;;;;;;;2.80;2.45;;;;;;;;;;5084338;28;20475;-82
2022/08/12 07:26:24;;;;;;;5.20;2.55;;;;;;;;;;5130226;27;20376;-79
2022/08/12 07:28:50;;;;;;;2.58;2.38;;;;;;;;;;5112099;28;20027;-79
2022/08/12 07:31:17;;;;;;;4.60;2.60;;;;;;;;;;5112037;28;20073;-79
2022/08/12 07:33:43;;;;;;;3.90;2.30;;;;;;;;;;5112014;28;20019;-80
2022/08/12 07:36:10;;;;;;;3.45;2.35;;;;;;;;;;5109848;27;20016;-81
2022/08/12 07:38:37;;;;;;;4.53;2.50;;;;;;;;;;5118110;28;20106;-80
2022/08/12 07:41:05;;;;;;;3.17;2.50;;;;;;;;;;5111910;28;20015;-78
2022/08/12 07:43:32;;;;;;;5.85;2.40;;;;;;;;;;5112145;28;20034;-81
2022/08/12 07:45:59;;;;;;;2.63;2.30;;;;;;;;;;5111839;28;20039;-80
2022/08/12 07:48:25;;;;;;;5.68;2.55;;;;;;;;;;5127732;28;20469;-80
2022/08/12 07:50:52;;;;;;;2.50;2.13;;;;;;;;;;5111774;28;20417;-80
2022/08/12 07:53:18;;;;;;;4.82;2.10;;;;;;;;;;5110619;28;20015;-80
2022/08/12 07:55:44;;;;;;;3.67;2.53;;;;;;;;;;5110511;28;20020;-80
2022/08/12 07:58:10;;;;;;;4.10;2.25;;;;;;;;;;5109123;28;20050;-78
2022/08/12 08:00:39;;;;;;;4.20;2.40;;;;;;;;;;5109891;28;20015;-78
2022/08/12 08:03:06;;;;;;;2.88;2.20;;;;;;;;;;5110865;28;20024;-81
2022/08/12 08:05:53;;;;;;;3.83;2.40;;;;;;;;;;5111280;28;20104;-79
2022/08/12 08:08:20;;;;;;;2.83;2.38;;;;;;;;;;5128150;28;20027;-78
2022/08/12 08:10:47;;;;;;;4.47;2.37;;;;;;;;;;5106226;28;20388;-79
2022/08/12 08:13:14;;;;;;;2.33;2.13;;;;;;;;;;5128063;28;20027;-79
2022/08/12 08:15:40;;;;;;;4.57;2.35;;;;;;;;;;5110469;28;20058;-79
2022/08/12 08:18:14;;;;;;;4.55;2.47;;;;;;;;;;5107574;28;20026;-79
2022/08/12 08:20:41;;;;;;;5.28;2.28;;;;;;;;;;5129204;28;20102;-81
2022/08/12 08:23:15;;;;;;;2.50;2.30;;;;;;;;;;5128949;28;20372;-79
2022/08/12 08:25:41;;;;;;;3.55;2.10;;;;;;;;;;5110876;28;20046;-80
2022/08/12 08:28:12;;;;;;;2.88;2.40;;;;;;;;;;5110248;28;20020;-80
2022/08/12 08:30:41;;;;;;;4.10;2.55;;;;;;;;;;5111026;28;20077;-79
2022/08/12 08:33:10;;;;;;;4.90;2.60;;;;;;;;;;5107514;28;20024;-80
2022/08/12 08:35:38;;;;;;;3.05;2.15;;;;;;;;;;5095315;28;20030;-81
2022/08/12 08:38:12;;;;;;;3.15;2.40;;;;;;;;;;5095018;28;20046;-81
2022/08/12 08:43:27;;;;;;;3.38;2.25;;;;;;;;;;5107662;28;20065;-81
2022/08/12 08:45:57;;;;;;;3.17;2.35;;;;;;;;;;5083196;28;20024;-79
2022/08/12 08:48:23;;;;;;;2.70;2.33;;;;;;;;;;5075833;28;20070;-79
2022/08/12 08:50:49;;;;;;;5.20;2.80;;;;;;;;;;5079603;28;20020;-79
2022/08/12 08:53:16;;;;;;;4.20;2.38;;;;;;;;;;5085898;28;20107;-79
2022/08/12 08:55:42;;;;;;;2.40;2.20;;;;;;;;;;5080541;28;20024;-79
2022/08/12 08:58:08;;;;;;;3.10;2.35;;;;;;;;;;5094256;28;20034;-80
2022/08/12 09:00:38;;;;;;;2.53;2.17;;;;;;;;;;5096487;28;20024;-78
2022/08/12 09:03:04;;;;;;;2.58;1.80;;;;;;;;;;5096796;28;20023;-80
2022/08/12 09:05:31;;;;;;;3.13;2.00;;;;;;;;;;5096897;28;20036;-79
2022/08/12 09:07:59;;;;;;;2.53;2.20;;;;;;;;;;5115178;28;20028;-78
2022/08/12 09:10:25;;;;;;;2.47;2.28;;;;;;;;;;5095433;28;20274;-80
2022/08/12 09:15:37;;;;;;;3.42;2.20;;;;;;;;;;5115358;28;20076;-79
2022/08/12 09:18:04;;;;;;;3.20;1.98;;;;;;;;;;5093975;28;20039;-79
2022/08/12 09:20:32;;;;;;;2.67;2.47;;;;;;;;;;5095764;28;20019;-80
2022/08/12 09:23:00;;;;;;;2.78;2.20;;;;;;;;;;5095810;28;20031;-80
2022/08/12 09:25:26;;;;;;;2.40;2.20;;;;;;;;;;5114383;28;20179;-79
2022/08/12 09:27:55;;;;;;;3.85;2.60;;;;;;;;;;5115186;28;20282;-79
2022/08/12 09:30:22;;;;;;;2.40;2.20;;;;;;;;;;5095730;28;20494;-79
2022/08/12 09:32:52;;;;;;;2.53;2.10;;;;;;;;;;5094475;28;20076;-79
2022/08/12 09:35:19;;;;;;;5.05;2.15;;;;;;;;;;5096184;28;20493;-80
2022/08/12 09:37:46;;;;;;;3.85;1.88;;;;;;;;;;5106879;28;20038;-78
2022/08/12 09:40:13;;;;;;;2.78;2.20;;;;;;;;;;5084485;28;20066;-79
2022/08/12 09:45:23;;;;;;;1.90;1.80;;;;;;;;;;5099168;27;20063;-79
2022/08/12 09:47:50;;;;;;;2.15;2.00;;;;;;;;;;5098780;28;20020;-80
2022/08/12 09:50:16;;;;;;;2.05;1.90;;;;;;;;;;5083387;28;20544;-78
2022/08/12 09:52:44;;;;;;;2.30;2.10;;;;;;;;;;5104608;28;20028;-79
2022/08/12 09:55:10;;;;;;;3.58;2.08;;;;;;;;;;5089317;28;20030;-79
2022/08/12 09:57:36;;;;;;;2.20;1.95;;;;;;;;;;5085991;28;20027;-80
2022/08/12 10:00:04;;;;;;;2.10;1.85;;;;;;;;;;5112814;28;20028;-81
2022/08/12 10:02:31;;;;;;;2.08;1.90;;;;;;;;;;5094970;28;20015;-80
2022/08/12 10:04:59;;;;;;;2.13;1.92;;;;;;;;;;5094699;28;20036;-79
2022/08/12 10:07:25;;;;;;;4.13;2.00;;;;;;;;;;5094910;28;20034;-80
2022/08/12 10:09:51;;;;;;;2.10;1.90;;;;;;;;;;5111910;28;20102;-80
2022/08/12 10:15:01;;;;;;;2.33;1.73;;;;;;;;;;5113986;28;20030;-79
2022/08/12 10:17:27;;;;;;;2.10;1.90;;;;;;;;;;5095557;28;20376;-82
2022/08/12 10:19:53;;;;;;;2.95;1.80;;;;;;;;;;5074728;28;20107;-82
2022/08/12 10:22:22;;;;;;;2.75;1.75;;;;;;;;;;5091318;28;20028;-82
2022/08/12 10:29:35;;;;;;;2.67;1.88;;;;;;;;;;5093383;28;20402;-80
2022/08/12 10:30:20;;;;;;;1.70;1.60;;;;;;;;;;5113104;28;20080;-80
2022/08/12 10:32:58;;;;;;;3.78;1.75;;;;;;;;;;5094864;28;20027;-80
2022/08/12 10:35:31;;;;;;;2.70;1.70;;;;;;;;;;5094543;28;20114;-79
2022/08/12 10:38:00;;;;;;;3.10;1.80;;;;;;;;;;5081973;28;20036;-72
2022/08/12 10:40:27;;;;;;;1.88;1.65;;;;;;;;;;5091736;28;20028;-81
2022/08/12 10:45:37;;;;;;;2.25;1.77;;;;;;;;;;5095168;28;20054;-79
2022/08/12 10:48:04;;;;;;;1.95;1.73;;;;;;;;;;5080880;28;20023;-78
2022/08/12 10:50:30;;;;;;;1.80;1.70;;;;;;;;;;5105621;27;20076;-81
2022/08/12 10:52:56;;;;;;;3.00;1.65;;;;;;;;;;5103790;28;20443;-78
2022/08/12 10:55:22;;;;;;;3.20;1.90;;;;;;;;;;5082117;28;20081;-80
2022/08/12 10:57:48;;;;;;;1.83;1.70;;;;;;;;;;5102126;28;20030;-79
2022/08/12 11:00:15;;;;;;;2.67;1.80;;;;;;;;;;5106760;28;20394;-79
2022/08/12 11:02:53;;;;;;;1.65;1.55;;;;;;;;;;5087304;28;20030;-78
2022/08/12 11:05:19;;;;;;;;;;;;;;;;;;5079171;28;20031;-79
2022/08/12 11:07:47;;;;;;;1.85;1.50;;;;;;;;;;5093949;28;19904;-79
2022/08/12 11:10:13;;;;;;;2.45;1.42;;;;;;;;;;5089004;28;20028;-79
2022/08/12 11:12:44;;;;;;;1.70;1.60;;;;;;;;;;5083720;28;20114;-79
2022/08/12 11:15:10;;;;;;;3.30;1.58;;;;;;;;;;5112802;28;20381;-78
2022/08/12 11:17:36;;;;;;;4.78;1.67;;;;;;;;;;5109972;28;20024;-78
2022/08/12 11:20:02;;;;;;;1.63;1.52;;;;;;;;;;5090703;28;20118;-79
2022/08/12 11:22:28;;;;;;;2.65;1.60;;;;;;;;;;5073751;28;20032;-79
2022/08/12 11:24:54;;;;;;;1.63;1.52;;;;;;;;;;5111275;28;20048;-77
2022/08/12 11:27:20;;;;;;;3.35;1.60;;;;;;;;;;5088883;28;20119;-79
2022/08/12 11:29:46;;;;;;;2.05;1.80;;;;;;;;;;5105252;28;20028;-79
2022/08/12 11:32:12;;;;;;;1.98;1.80;;;;;;;;;;5080105;28;20032;-79
2022/08/12 11:34:38;;;;;;;2.72;1.50;;;;;;;;;;5094303;28;20043;-79
2022/08/12 11:37:06;;;;;;;2.13;1.63;;;;;;;;;;5081726;28;20028;-79
2022/08/12 11:39:32;;;;;;;2.38;1.60;;;;;;;;;;5082251;28;20057;-80
2022/08/12 11:41:59;;;;;;;1.63;1.52;;;;;;;;;;5096942;28;20362;-80
2022/08/12 11:44:25;;;;;;;1.55;1.45;;;;;;;;;;5085833;28;20119;-79
2022/08/12 11:46:53;;;;;;;2.97;1.90;;;;;;;;;;5105391;28;20536;-78
2022/08/12 11:49:20;;;;;;;2.22;1.40;;;;;;;;;;5093170;28;20392;-79
2022/08/12 11:51:46;;;;;;;3.13;1.70;;;;;;;;;;5091835;28;20031;-81
2022/08/12 11:54:12;;;;;;;1.85;1.50;;;;;;;;;;5107512;28;20040;-79
2022/08/12 11:56:38;;;;;;;2.00;1.70;;;;;;;;;;5101286;28;20021;-78
2022/08/12 11:59:04;;;;;;;1.60;1.50;;;;;;;;;;5091712;28;20024;-81
2022/08/12 12:01:30;;;;;;;3.22;1.42;;;;;;;;;;5111122;28;20068;-73
2022/08/12 12:03:56;;;;;;;1.75;1.45;;;;;;;;;;5108405;28;20024;-73
2022/08/12 12:06:22;;;;;;;2.30;1.60;;;;;;;;;;5102638;28;20031;-72
2022/08/12 12:08:48;;;;;;;3.15;2.00;;;;;;;;;;5096991;28;20028;-84
2022/08/12 12:11:14;;;;;;;1.67;1.58;;;;;;;;;;5082811;28;20366;-81
2022/08/12 12:13:40;;;;;;;2.95;1.80;;;;;;;;;;5091646;28;20027;-77
2022/08/12 12:16:07;;;;;;;3.28;1.65;;;;;;;;;;5099698;28;20051;-80
2022/08/12 12:18:36;;;;;;;1.70;1.60;;;;;;;;;;5087976;27;20027;-80
2022/08/12 12:21:04;;;;;;;4.05;2.00;;;;;;;;;;5084896;28;20019;-80
2022/08/12 12:23:30;;;;;;;2.03;1.83;;;;;;;;;;5108603;28;20024;-80
2022/08/12 12:25:57;;;;;;;2.78;1.75;;;;;;;;;;5103739;28;20048;-80
2022/08/12 12:28:23;;;;;;;1.70;1.60;;;;;;;;;;5078073;28;20020;-80
2022/08/12 12:30:49;;;;;;;1.90;1.75;;;;;;;;;;5103103;28;20023;-80
2022/08/12 12:33:15;;;;;;;1.92;1.73;;;;;;;;;;5079713;28;20016;-80
2022/08/12 12:35:41;;;;;;;1.77;1.67;;;;;;;;;;5088860;28;20040;-81
2022/08/12 12:38:08;;;;;;;1.83;1.70;;;;;;;;;;5091357;28;20435;-80
2022/08/12 12:40:36;;;;;;;2.00;1.63;;;;;;;;;;5105707;28;20056;-81
2022/08/12 12:43:02;;;;;;;2.55;1.90;;;;;;;;;;5103412;28;20016;-80
2022/08/12 12:45:28;;;;;;;2.38;1.90;;;;;;;;;;5101276;27;20508;-80
2022/08/12 12:47:59;;;;;;;2.10;1.65;;;;;;;;;;5103225;27;20028;-81
2022/08/12 12:50:26;;;;;;;4.22;1.70;;;;;;;;;;5080962;28;20542;-81
2022/08/12 12:52:53;;;;;;;1.80;1.70;;;;;;;;;;5085152;27;20389;-80
2022/08/12 12:55:19;;;;;;;2.60;1.67;;;;;;;;;;5086703;28;20034;-82
2022/08/12 12:57:45;;;;;;;2.15;1.80;;;;;;;;;;5109753;28;20394;-80
2022/08/12 13:00:15;;;;;;;1.70;1.60;;;;;;;;;;5106692;28;20027;-81
2022/08/12 13:02:54;;;;;;;2.70;1.60;;;;;;;;;;5093238;28;20708;-82
2022/08/12 13:05:20;;;;;;;1.80;1.70;;;;;;;;;;5115235;28;20135;-83
2022/08/12 13:07:46;;;;;;;2.28;1.60;;;;;;;;;;5114067;28;20354;-80
2022/08/12 13:10:12;;;;;;;4.43;1.90;;;;;;;;;;5094970;28;20077;-82
2022/08/12 13:12:39;;;;;;;1.67;1.58;;;;;;;;;;5114563;28;20512;-81
2022/08/12 13:15:08;;;;;;;1.85;1.73;;;;;;;;;;5096445;28;20090;-80
2022/08/12 13:17:34;;;;;;;2.92;1.73;;;;;;;;;;5096298;28;20019;-82
2022/08/12 13:20:03;;;;;;;2.70;1.70;;;;;;;;;;5096429;28;20047;-81
2022/08/12 13:22:29;;;;;;;1.60;1.50;;;;;;;;;;5096201;28;20024;-80
2022/08/12 13:24:58;;;;;;;1.48;1.30;;;;;;;;;;5095888;28;20141;-79
2022/08/12 13:27:28;;;;;;;2.85;1.50;;;;;;;;;;5113683;28;20045;-81
2022/08/12 13:29:57;;;;;;;2.45;1.50;;;;;;;;;;5094095;28;20111;-81
2022/08/12 13:32:23;;;;;;;2.15;1.50;;;;;;;;;;5094287;28;20024;-81
2022/08/12 13:34:51;;;;;;;2.03;1.10;;;;;;;;;;5093328;28;20066;-80
2022/08/12 13:37:19;;;;;;;2.30;1.50;;;;;;;;;;5080750;28;20024;-81
2022/08/12 13:39:45;;;;;;;1.60;1.40;;;;;;;;;;5096114;28;20266;-81
2022/08/12 13:42:12;;;;;;;1.40;1.30;;;;;;;;;;5094857;28;20039;-80
2022/08/12 13:44:38;;;;;;;1.80;1.48;;;;;;;;;;5094902;28;20031;-82
2022/08/12 13:47:04;;;;;;;1.55;1.40;;;;;;;;;;5096128;28;20027;-82
2022/08/12 13:49:31;;;;;;;3.92;1.50;;;;;;;;;;5096027;28;20019;-80
2022/08/12 13:51:57;;;;;;;2.65;1.45;;;;;;;;;;5093702;28;20047;-80
2022/08/12 13:54:23;;;;;;;4.80;1.48;;;;;;;;;;5114143;28;20074;-80
2022/08/12 13:56:49;;;;;;;1.73;1.30;;;;;;;;;;5093213;28;20023;-80
2022/08/12 13:59:17;;;;;;;1.40;1.30;;;;;;;;;;5089991;28;20020;-80
2022/08/12 14:01:43;;;;;;;2.80;1.30;;;;;;;;;;5074489;28;20421;-80
2022/08/12 14:04:09;;;;;;;3.00;1.23;;;;;;;;;;5075213;28;20040;-81
2022/08/12 14:06:37;;;;;;;2.45;1.23;;;;;;;;;;5075276;28;20032;-81
2022/08/12 14:09:03;;;;;;;1.63;1.35;;;;;;;;;;5074597;28;20423;-80
2022/08/12 14:11:30;;;;;;;1.30;1.05;;;;;;;;;;5075182;28;20431;-81
2022/08/12 14:13:58;;;;;;;2.35;1.35;;;;;;;;;;5092757;28;20034;-80
2022/08/12 14:16:24;;;;;;;1.40;1.30;;;;;;;;;;5094950;28;20028;-81
2022/08/12 14:18:50;;;;;;;1.52;1.27;;;;;;;;;;5111092;28;20028;-84
2022/08/12 14:21:18;;;;;;;1.67;1.40;;;;;;;;;;5113140;28;20024;-81
2022/08/12 14:23:51;;;;;;;2.17;1.25;;;;;;;;;;5094633;28;20024;-80
2022/08/12 14:26:19;;;;;;;2.28;1.40;;;;;;;;;;5093763;28;20570;-79
2022/08/12 14:28:45;;;;;;;1.67;1.45;;;;;;;;;;5086919;28;20023;-80
2022/08/12 14:31:12;;;;;;;2.97;1.63;;;;;;;;;;5094717;28;20027;-79
2022/08/12 14:33:39;;;;;;;2.72;1.58;;;;;;;;;;5094687;28;20024;-80
2022/08/12 14:36:07;;;;;;;1.42;1.27;;;;;;;;;;5094918;28;20022;-80
2022/08/12 14:38:40;;;;;;;1.20;1.10;;;;;;;;;;5094707;28;20023;-80
2022/08/12 14:41:10;;;;;;;2.50;1.20;;;;;;;;;;5113176;28;20030;-80
2022/08/12 14:43:37;;;;;;;1.40;1.30;;;;;;;;;;5086101;28;20024;-81
2022/08/12 14:46:11;;;;;;;2.65;1.60;;;;;;;;;;5094668;28;20374;-80
2022/08/12 14:48:40;;;;;;;4.68;1.80;;;;;;;;;;5094897;28;20020;-80
2022/08/12 14:51:07;;;;;;;2.25;1.40;;;;;;;;;;5094938;28;20015;-80
2022/08/12 14:53:33;;;;;;;1.50;1.30;;;;;;;;;;5094929;28;20020;-80
2022/08/12 14:56:00;;;;;;;2.10;1.40;;;;;;;;;;5111005;28;20016;-81
2022/08/12 14:58:26;;;;;;;2.65;1.38;;;;;;;;;;5111480;28;20019;-80
2022/08/12 15:03:37;;;;;;;1.88;1.48;;;;;;;;;;5112564;28;20049;-81
2022/08/12 15:06:05;;;;;;;3.40;1.48;;;;;;;;;;5112847;28;20521;-81
2022/08/12 15:08:36;;;;;;;2.03;1.35;;;;;;;;;;5093848;28;20016;-81
2022/08/12 15:11:03;;;;;;;2.70;1.52;;;;;;;;;;5094697;28;20027;-80
2022/08/12 15:13:31;;;;;;;2.47;1.40;;;;;;;;;;5092886;28;20024;-79
2022/08/12 15:15:59;;;;;;;1.50;1.23;;;;;;;;;;5112916;28;20389;-82
2022/08/12 15:18:25;;;;;;;1.58;1.27;;;;;;;;;;5083823;28;20313;-83
2022/08/12 15:20:53;;;;;;;3.08;1.50;;;;;;;;;;5074208;28;20054;-82
2022/08/12 15:23:21;;;;;;;1.48;1.20;;;;;;;;;;5072982;28;20412;-82
2022/08/12 15:25:47;;;;;;;;;;;;;;;;;;5070976;28;20044;-83
2022/08/12 15:28:15;;;;;;;3.13;1.38;;;;;;;;;;5070138;28;19911;-85
2022/08/12 15:30:41;;;;;;;2.90;1.38;;;;;;;;;;5072175;28;20025;-82
2022/08/12 15:33:08;;;;;;;1.52;1.30;;;;;;;;;;5079401;28;20050;-83
2022/08/12 15:35:35;;;;;;;1.60;1.30;;;;;;;;;;5090941;28;20024;-83
2022/08/12 15:38:02;;;;;;;1.58;1.30;;;;;;;;;;5089245;28;20048;-82
2022/08/12 15:40:29;;;;;;;2.20;1.23;;;;;;;;;;5090156;28;20021;-82
2022/08/12 15:42:57;;;;;;;3.25;1.40;;;;;;;;;;5089564;28;20032;-82
2022/08/12 15:45:23;;;;;;;3.75;1.38;;;;;;;;;;5092191;28;20036;-83
2022/08/12 15:47:51;;;;;;;2.13;1.20;;;;;;;;;;5094726;28;20077;-83
2022/08/12 15:50:17;;;;;;;;;;;;;;;;;;5095383;28;20020;-81
2022/08/12 15:52:43;;;;;;;1.35;1.25;;;;;;;;;;5092355;28;20017;-81
2022/08/12 15:55:13;;;;;;;1.25;1.10;;;;;;;;;;5090991;28;20478;-81
2022/08/12 15:58:01;;;;;;;2.72;1.40;;;;;;;;;;5094887;28;20099;-81
2022/08/12 16:00:28;;;;;;;1.17;1.08;;;;;;;;;;5094694;28;20062;-83
2022/08/12 16:02:57;;;;;;;2.80;1.20;;;;;;;;;;5094549;28;20119;-82
2022/08/12 16:05:23;;;;;;;2.30;1.23;;;;;;;;;;5094339;28;20117;-81
2022/08/12 16:07:50;;;;;;;1.85;1.10;;;;;;;;;;5094311;28;20024;-82
2022/08/12 16:10:20;;;;;;;2.60;1.30;;;;;;;;;;5094378;28;20046;-84
2022/08/12 16:12:47;;;;;;;3.70;1.17;;;;;;;;;;5094338;28;20024;-83
2022/08/12 16:15:14;;;;;;;2.05;1.23;;;;;;;;;;5095206;28;20031;-83
2022/08/12 16:17:45;;;;;;;1.20;1.10;;;;;;;;;;5108073;28;20016;-83
2022/08/12 16:20:16;;;;;;;1.65;1.27;;;;;;;;;;5093822;28;20425;-83
2022/08/12 16:22:44;;;;;;;3.95;1.30;;;;;;;;;;5094208;28;20107;-83
2022/08/12 16:25:11;;;;;;;2.63;1.52;;;;;;;;;;5093958;28;20229;-82